首页
METAR-TAF:

METAR-TAF

机场 :

Fergus Falls Municipal Airport (Einar Mickelson Field)

Fergus Falls, 明尼蘇達州, 美国

纬度: 46-17N, 经度: 096-09W, 海拔: 616米

当前天气观测

该预报发布于6分钟前的04:35 UTC
风速8节,风向西
温度 6°C
湿度 100%
气压 1004 hPa
能見度: 16.1公里
多云层高于2300英尺

METAR: KFFM 250435Z AUTO 26008KT 10SM BKN023 06/06 A2966 RMK AO2

时间: 23:41 (04:41 UTC)


TAF: 丢失

超过4000个机场的气象观测和天气预报(METAR&TAF报告)。

可查询的气象台以黄色和红色小点在地图上表示。

将鼠标移到小点上方,可查看气象台名称。

然后点击查看天气观测和预报。

如需切换地图:点击带黑十字的绿色按钮放大地图;点击带横线的绿色按钮缩小地图;或者点击绿色箭头查看邻近地区的地图。


METAR-TAF: